sensor_id;sensor_type;location;lat;lon;timestamp;temperature;humidity
49579;DHT22;35483;50.828;3.228;2023-02-15T00:01:19;3.80;99.90
49579;DHT22;35483;50.828;3.228;2023-02-15T00:03:48;3.80;99.90
49579;DHT22;35483;50.828;3.228;2023-02-15T00:06:14;3.80;99.90
49579;DHT22;35483;50.828;3.228;2023-02-15T00:08:40;3.80;99.90
49579;DHT22;35483;50.828;3.228;2023-02-15T00:11:11;3.80;99.90
49579;DHT22;35483;50.828;3.228;2023-02-15T00:13:37;3.80;99.90
49579;DHT22;35483;50.828;3.228;2023-02-15T00:16:10;3.80;99.90
49579;DHT22;35483;50.828;3.228;2023-02-15T00:18:36;3.70;99.90
49579;DHT22;35483;50.828;3.228;2023-02-15T00:21:07;3.70;99.90
49579;DHT22;35483;50.828;3.228;2023-02-15T00:23:33;3.70;99.90
49579;DHT22;35483;50.828;3.228;2023-02-15T00:26:10;3.70;99.90
49579;DHT22;35483;50.828;3.228;2023-02-15T00:28:36;3.70;99.90
49579;DHT22;35483;50.828;3.228;2023-02-15T00:31:04;3.60;99.90
49579;DHT22;35483;50.828;3.228;2023-02-15T00:33:29;3.60;99.90
49579;DHT22;35483;50.828;3.228;2023-02-15T00:35:59;3.60;99.90
49579;DHT22;35483;50.828;3.228;2023-02-15T00:38:28;3.60;99.90
49579;DHT22;35483;50.828;3.228;2023-02-15T00:40:56;3.60;99.90
49579;DHT22;35483;50.828;3.228;2023-02-15T00:43:22;3.50;99.90
49579;DHT22;35483;50.828;3.228;2023-02-15T00:45:48;3.50;99.90
49579;DHT22;35483;50.828;3.228;2023-02-15T00:48:14;3.50;99.90
49579;DHT22;35483;50.828;3.228;2023-02-15T00:50:39;3.50;99.90
49579;DHT22;35483;50.828;3.228;2023-02-15T00:53:05;3.50;99.90
49579;DHT22;35483;50.828;3.228;2023-02-15T00:55:31;3.50;99.90
49579;DHT22;35483;50.828;3.228;2023-02-15T00:57:57;3.50;99.90
49579;DHT22;35483;50.828;3.228;2023-02-15T01:00:24;3.50;99.90
49579;DHT22;35483;50.828;3.228;2023-02-15T01:02:49;3.50;99.90
49579;DHT22;35483;50.828;3.228;2023-02-15T01:05:15;3.50;99.90
49579;DHT22;35483;50.828;3.228;2023-02-15T01:07:41;3.40;99.90
49579;DHT22;35483;50.828;3.228;2023-02-15T01:10:07;3.40;99.90
49579;DHT22;35483;50.828;3.228;2023-02-15T01:12:33;3.40;99.90
49579;DHT22;35483;50.828;3.228;2023-02-15T01:15:00;3.30;99.90
49579;DHT22;35483;50.828;3.228;2023-02-15T01:17:26;3.30;99.90
49579;DHT22;35483;50.828;3.228;2023-02-15T01:19:52;3.30;99.90
49579;DHT22;35483;50.828;3.228;2023-02-15T01:22:19;3.30;99.90
49579;DHT22;35483;50.828;3.228;2023-02-15T01:24:44;3.30;99.90
49579;DHT22;35483;50.828;3.228;2023-02-15T01:27:10;3.30;99.90
49579;DHT22;35483;50.828;3.228;2023-02-15T01:29:36;3.30;99.90
49579;DHT22;35483;50.828;3.228;2023-02-15T01:32:02;3.20;99.90
49579;DHT22;35483;50.828;3.228;2023-02-15T01:34:29;3.20;99.90
49579;DHT22;35483;50.828;3.228;2023-02-15T01:36:54;3.20;99.90
49579;DHT22;35483;50.828;3.228;2023-02-15T01:39:20;3.20;99.90
49579;DHT22;35483;50.828;3.228;2023-02-15T01:41:46;3.20;99.90
49579;DHT22;35483;50.828;3.228;2023-02-15T01:44:45;3.20;99.90
49579;DHT22;35483;50.828;3.228;2023-02-15T01:47:22;3.20;99.90
49579;DHT22;35483;50.828;3.228;2023-02-15T01:49:52;3.20;99.90
49579;DHT22;35483;50.828;3.228;2023-02-15T01:52:23;3.20;99.90
49579;DHT22;35483;50.828;3.228;2023-02-15T01:54:49;3.10;99.90
49579;DHT22;35483;50.828;3.228;2023-02-15T01:57:19;3.10;99.90
49579;DHT22;35483;50.828;3.228;2023-02-15T01:59:50;3.10;99.90
49579;DHT22;35483;50.828;3.228;2023-02-15T02:02:19;3.10;99.90
49579;DHT22;35483;50.828;3.228;2023-02-15T02:04:54;3.10;99.90
49579;DHT22;35483;50.828;3.228;2023-02-15T02:07:26;3.00;99.90
49579;DHT22;35483;50.828;3.228;2023-02-15T02:09:52;3.00;99.90
49579;DHT22;35483;50.828;3.228;2023-02-15T02:12:18;3.00;99.90
49579;DHT22;35483;50.828;3.228;2023-02-15T02:14:47;3.00;99.90
49579;DHT22;35483;50.828;3.228;2023-02-15T02:28:20;2.90;99.90
49579;DHT22;35483;50.828;3.228;2023-02-15T02:31:14;2.90;99.90
49579;DHT22;35483;50.828;3.228;2023-02-15T02:34:19;2.80;99.90
49579;DHT22;35483;50.828;3.228;2023-02-15T02:45:35;2.80;99.90
49579;DHT22;35483;50.828;3.228;2023-02-15T02:48:14;2.80;99.90
49579;DHT22;35483;50.828;3.228;2023-02-15T02:50:41;2.80;99.90
49579;DHT22;35483;50.828;3.228;2023-02-15T02:53:09;2.70;99.90
49579;DHT22;35483;50.828;3.228;2023-02-15T02:55:46;2.70;99.90
49579;DHT22;35483;50.828;3.228;2023-02-15T02:58:17;2.80;99.90
49579;DHT22;35483;50.828;3.228;2023-02-15T03:00:50;2.70;99.90
49579;DHT22;35483;50.828;3.228;2023-02-15T03:03:29;2.80;99.90
49579;DHT22;35483;50.828;3.228;2023-02-15T03:05:59;2.70;99.90
49579;DHT22;35483;50.828;3.228;2023-02-15T03:08:30;2.70;99.90
49579;DHT22;35483;50.828;3.228;2023-02-15T03:11:00;2.70;99.90
49579;DHT22;35483;50.828;3.228;2023-02-15T03:13:28;2.70;99.90
49579;DHT22;35483;50.828;3.228;2023-02-15T03:15:54;2.70;99.90
49579;DHT22;35483;50.828;3.228;2023-02-15T03:18:44;2.70;99.90
49579;DHT22;35483;50.828;3.228;2023-02-15T03:21:20;2.60;99.90
49579;DHT22;35483;50.828;3.228;2023-02-15T03:23:53;2.60;99.90
49579;DHT22;35483;50.828;3.228;2023-02-15T03:26:20;2.60;99.90
49579;DHT22;35483;50.828;3.228;2023-02-15T03:28:49;2.60;99.90
49579;DHT22;35483;50.828;3.228;2023-02-15T03:31:18;2.60;99.90
49579;DHT22;35483;50.828;3.228;2023-02-15T03:34:12;2.60;99.90
49579;DHT22;35483;50.828;3.228;2023-02-15T03:36:54;2.60;99.90
49579;DHT22;35483;50.828;3.228;2023-02-15T03:39:46;2.50;99.90
49579;DHT22;35483;50.828;3.228;2023-02-15T03:42:31;2.50;99.90
49579;DHT22;35483;50.828;3.228;2023-02-15T03:45:09;2.50;99.90
49579;DHT22;35483;50.828;3.228;2023-02-15T03:47:44;2.50;99.90
49579;DHT22;35483;50.828;3.228;2023-02-15T03:50:15;2.50;99.90
49579;DHT22;35483;50.828;3.228;2023-02-15T03:53:05;2.50;99.90
49579;DHT22;35483;50.828;3.228;2023-02-15T03:55:31;2.50;99.90
49579;DHT22;35483;50.828;3.228;2023-02-15T03:57:58;2.60;99.90
49579;DHT22;35483;50.828;3.228;2023-02-15T04:00:50;2.60;99.90
49579;DHT22;35483;50.828;3.228;2023-02-15T04:03:41;2.70;99.90
49579;DHT22;35483;50.828;3.228;2023-02-15T04:06:08;2.70;99.90
49579;DHT22;35483;50.828;3.228;2023-02-15T04:08:34;2.70;99.90
49579;DHT22;35483;50.828;3.228;2023-02-15T04:11:18;2.70;99.90
49579;DHT22;35483;50.828;3.228;2023-02-15T04:13:44;2.70;99.90
49579;DHT22;35483;50.828;3.228;2023-02-15T04:16:10;2.70;99.90
49579;DHT22;35483;50.828;3.228;2023-02-15T04:18:38;2.70;99.90
49579;DHT22;35483;50.828;3.228;2023-02-15T04:21:25;2.70;99.90
49579;DHT22;35483;50.828;3.228;2023-02-15T04:24:10;2.60;99.90
49579;DHT22;35483;50.828;3.228;2023-02-15T04:26:54;2.60;99.90
49579;DHT22;35483;50.828;3.228;2023-02-15T04:29:22;2.60;99.90
49579;DHT22;35483;50.828;3.228;2023-02-15T04:31:48;2.60;99.90
49579;DHT22;35483;50.828;3.228;2023-02-15T04:34:14;2.70;99.90
49579;DHT22;35483;50.828;3.228;2023-02-15T04:36:41;2.70;99.90
49579;DHT22;35483;50.828;3.228;2023-02-15T04:39:07;2.70;99.90
49579;DHT22;35483;50.828;3.228;2023-02-15T04:41:34;2.80;99.90
49579;DHT22;35483;50.828;3.228;2023-02-15T04:44:00;2.80;99.90
49579;DHT22;35483;50.828;3.228;2023-02-15T04:46:27;2.80;99.90
49579;DHT22;35483;50.828;3.228;2023-02-15T04:48:54;2.80;99.90
49579;DHT22;35483;50.828;3.228;2023-02-15T04:51:20;2.80;99.90
49579;DHT22;35483;50.828;3.228;2023-02-15T04:53:46;2.80;99.90
49579;DHT22;35483;50.828;3.228;2023-02-15T04:56:12;2.80;99.90
49579;DHT22;35483;50.828;3.228;2023-02-15T04:58:38;2.80;99.90
49579;DHT22;35483;50.828;3.228;2023-02-15T05:01:07;2.70;99.90
49579;DHT22;35483;50.828;3.228;2023-02-15T05:03:33;2.70;99.90
49579;DHT22;35483;50.828;3.228;2023-02-15T05:05:59;2.70;99.90
49579;DHT22;35483;50.828;3.228;2023-02-15T05:08:25;2.70;99.90
49579;DHT22;35483;50.828;3.228;2023-02-15T05:10:50;2.70;99.90
49579;DHT22;35483;50.828;3.228;2023-02-15T05:13:16;2.70;99.90
49579;DHT22;35483;50.828;3.228;2023-02-15T05:15:52;2.70;99.90
49579;DHT22;35483;50.828;3.228;2023-02-15T05:18:19;2.80;99.90
49579;DHT22;35483;50.828;3.228;2023-02-15T05:20:45;2.80;99.90
49579;DHT22;35483;50.828;3.228;2023-02-15T05:23:11;2.80;99.90
49579;DHT22;35483;50.828;3.228;2023-02-15T05:25:37;2.80;99.90
49579;DHT22;35483;50.828;3.228;2023-02-15T05:28:23;2.80;99.90
49579;DHT22;35483;50.828;3.228;2023-02-15T05:30:51;2.80;99.90
49579;DHT22;35483;50.828;3.228;2023-02-15T05:33:22;2.80;99.90
49579;DHT22;35483;50.828;3.228;2023-02-15T05:35:48;2.80;99.90
49579;DHT22;35483;50.828;3.228;2023-02-15T05:38:13;2.80;99.90
49579;DHT22;35483;50.828;3.228;2023-02-15T05:40:39;2.80;99.90
49579;DHT22;35483;50.828;3.228;2023-02-15T05:43:04;2.90;99.90
49579;DHT22;35483;50.828;3.228;2023-02-15T05:45:30;2.90;99.90
49579;DHT22;35483;50.828;3.228;2023-02-15T05:47:56;2.90;99.90
49579;DHT22;35483;50.828;3.228;2023-02-15T05:50:24;3.00;99.90
49579;DHT22;35483;50.828;3.228;2023-02-15T05:52:49;3.00;99.90
49579;DHT22;35483;50.828;3.228;2023-02-15T05:55:16;3.00;99.90
49579;DHT22;35483;50.828;3.228;2023-02-15T05:57:42;3.00;99.90
49579;DHT22;35483;50.828;3.228;2023-02-15T06:00:11;3.00;99.90
49579;DHT22;35483;50.828;3.228;2023-02-15T06:02:38;3.10;99.90
49579;DHT22;35483;50.828;3.228;2023-02-15T06:05:05;3.10;99.90
49579;DHT22;35483;50.828;3.228;2023-02-15T06:07:31;3.10;99.90
49579;DHT22;35483;50.828;3.228;2023-02-15T06:09:57;3.10;99.90
49579;DHT22;35483;50.828;3.228;2023-02-15T06:12:23;3.10;99.90
49579;DHT22;35483;50.828;3.228;2023-02-15T06:14:48;3.10;99.90
49579;DHT22;35483;50.828;3.228;2023-02-15T06:17:14;3.20;99.90
49579;DHT22;35483;50.828;3.228;2023-02-15T06:19:42;3.20;99.90
49579;DHT22;35483;50.828;3.228;2023-02-15T06:22:07;3.20;99.90
49579;DHT22;35483;50.828;3.228;2023-02-15T06:24:33;3.20;99.90
49579;DHT22;35483;50.828;3.228;2023-02-15T06:27:00;3.20;99.90
49579;DHT22;35483;50.828;3.228;2023-02-15T06:29:25;3.20;99.90
49579;DHT22;35483;50.828;3.228;2023-02-15T06:31:51;3.20;99.90
49579;DHT22;35483;50.828;3.228;2023-02-15T06:34:16;3.20;99.90
49579;DHT22;35483;50.828;3.228;2023-02-15T06:36:42;3.20;99.90
49579;DHT22;35483;50.828;3.228;2023-02-15T06:39:08;3.20;99.90
49579;DHT22;35483;50.828;3.228;2023-02-15T06:41:34;3.20;99.90
49579;DHT22;35483;50.828;3.228;2023-02-15T06:43:59;3.20;99.90
49579;DHT22;35483;50.828;3.228;2023-02-15T06:46:25;3.20;99.90
49579;DHT22;35483;50.828;3.228;2023-02-15T06:48:51;3.20;99.90
49579;DHT22;35483;50.828;3.228;2023-02-15T06:51:16;3.20;99.90
49579;DHT22;35483;50.828;3.228;2023-02-15T06:53:42;3.20;99.90
49579;DHT22;35483;50.828;3.228;2023-02-15T06:56:09;3.20;99.90
49579;DHT22;35483;50.828;3.228;2023-02-15T06:58:37;3.20;99.90
49579;DHT22;35483;50.828;3.228;2023-02-15T07:01:03;3.20;99.90
49579;DHT22;35483;50.828;3.228;2023-02-15T07:03:29;3.30;99.90
49579;DHT22;35483;50.828;3.228;2023-02-15T07:05:55;3.30;99.90
49579;DHT22;35483;50.828;3.228;2023-02-15T07:08:21;3.30;99.90
49579;DHT22;35483;50.828;3.228;2023-02-15T07:10:49;3.40;99.90
49579;DHT22;35483;50.828;3.228;2023-02-15T07:13:14;3.40;99.90
49579;DHT22;35483;50.828;3.228;2023-02-15T07:15:40;3.40;99.90
49579;DHT22;35483;50.828;3.228;2023-02-15T07:18:09;3.40;99.90
49579;DHT22;35483;50.828;3.228;2023-02-15T07:20:36;3.40;99.90
49579;DHT22;35483;50.828;3.228;2023-02-15T07:23:03;3.40;99.90
49579;DHT22;35483;50.828;3.228;2023-02-15T07:25:29;3.40;99.90
49579;DHT22;35483;50.828;3.228;2023-02-15T07:27:57;3.40;99.90
49579;DHT22;35483;50.828;3.228;2023-02-15T07:30:23;3.50;99.90
49579;DHT22;35483;50.828;3.228;2023-02-15T07:32:49;3.50;99.90
49579;DHT22;35483;50.828;3.228;2023-02-15T07:35:33;3.60;99.90
49579;DHT22;35483;50.828;3.228;2023-02-15T07:37:59;3.60;99.90
49579;DHT22;35483;50.828;3.228;2023-02-15T07:40:25;3.70;99.90
49579;DHT22;35483;50.828;3.228;2023-02-15T07:42:51;3.70;99.90
49579;DHT22;35483;50.828;3.228;2023-02-15T07:45:18;3.80;99.90
49579;DHT22;35483;50.828;3.228;2023-02-15T07:47:44;3.90;99.90
49579;DHT22;35483;50.828;3.228;2023-02-15T07:50:10;3.90;99.90
49579;DHT22;35483;50.828;3.228;2023-02-15T07:52:35;4.00;99.90
49579;DHT22;35483;50.828;3.228;2023-02-15T07:55:01;4.10;99.90
49579;DHT22;35483;50.828;3.228;2023-02-15T07:57:27;4.10;99.90
49579;DHT22;35483;50.828;3.228;2023-02-15T07:59:53;4.10;99.90
49579;DHT22;35483;50.828;3.228;2023-02-15T08:02:19;4.20;99.90
49579;DHT22;35483;50.828;3.228;2023-02-15T08:04:44;4.30;99.90
49579;DHT22;35483;50.828;3.228;2023-02-15T08:07:10;4.30;99.90
49579;DHT22;35483;50.828;3.228;2023-02-15T08:09:35;4.40;99.90
49579;DHT22;35483;50.828;3.228;2023-02-15T08:12:01;4.50;99.90
49579;DHT22;35483;50.828;3.228;2023-02-15T08:14:27;4.50;99.90
49579;DHT22;35483;50.828;3.228;2023-02-15T08:16:59;4.60;99.90
49579;DHT22;35483;50.828;3.228;2023-02-15T08:19:29;4.70;99.90
49579;DHT22;35483;50.828;3.228;2023-02-15T08:21:57;4.70;99.90
49579;DHT22;35483;50.828;3.228;2023-02-15T08:24:25;4.80;99.90
49579;DHT22;35483;50.828;3.228;2023-02-15T08:26:52;4.80;99.90
49579;DHT22;35483;50.828;3.228;2023-02-15T08:29:20;4.90;99.90
49579;DHT22;35483;50.828;3.228;2023-02-15T08:31:48;4.90;99.90
49579;DHT22;35483;50.828;3.228;2023-02-15T08:34:19;5.00;99.90
49579;DHT22;35483;50.828;3.228;2023-02-15T08:36:45;5.10;99.90
49579;DHT22;35483;50.828;3.228;2023-02-15T08:39:12;5.10;99.90
49579;DHT22;35483;50.828;3.228;2023-02-15T08:41:39;5.20;99.90
49579;DHT22;35483;50.828;3.228;2023-02-15T08:44:07;5.20;99.90
49579;DHT22;35483;50.828;3.228;2023-02-15T08:46:38;5.30;99.90
49579;DHT22;35483;50.828;3.228;2023-02-15T08:49:04;5.30;99.90
49579;DHT22;35483;50.828;3.228;2023-02-15T08:51:32;5.40;99.90
49579;DHT22;35483;50.828;3.228;2023-02-15T08:54:01;5.40;99.90
49579;DHT22;35483;50.828;3.228;2023-02-15T08:56:29;5.40;99.90
49579;DHT22;35483;50.828;3.228;2023-02-15T08:58:55;5.50;99.90
49579;DHT22;35483;50.828;3.228;2023-02-15T09:01:28;5.50;99.90
49579;DHT22;35483;50.828;3.228;2023-02-15T09:04:03;5.60;99.90
49579;DHT22;35483;50.828;3.228;2023-02-15T09:06:36;5.60;99.90
49579;DHT22;35483;50.828;3.228;2023-02-15T09:09:02;5.70;99.90
49579;DHT22;35483;50.828;3.228;2023-02-15T09:11:30;5.80;99.90
49579;DHT22;35483;50.828;3.228;2023-02-15T09:14:01;5.80;99.90
49579;DHT22;35483;50.828;3.228;2023-02-15T09:16:29;5.90;99.90
49579;DHT22;35483;50.828;3.228;2023-02-15T09:18:56;5.90;99.90
49579;DHT22;35483;50.828;3.228;2023-02-15T09:21:27;5.90;99.90
49579;DHT22;35483;50.828;3.228;2023-02-15T09:23:59;6.00;99.90
49579;DHT22;35483;50.828;3.228;2023-02-15T09:26:26;6.10;99.90
49579;DHT22;35483;50.828;3.228;2023-02-15T09:28:55;6.10;99.90
49579;DHT22;35483;50.828;3.228;2023-02-15T09:31:24;6.20;99.90
49579;DHT22;35483;50.828;3.228;2023-02-15T09:33:50;6.30;99.90
49579;DHT22;35483;50.828;3.228;2023-02-15T09:38:55;6.30;99.90
49579;DHT22;35483;50.828;3.228;2023-02-15T09:48:11;6.60;99.90
49579;DHT22;35483;50.828;3.228;2023-02-15T09:58:40;6.80;99.90
49579;DHT22;35483;50.828;3.228;2023-02-15T10:01:31;6.90;99.90
49579;DHT22;35483;50.828;3.228;2023-02-15T10:15:36;7.30;99.90
49579;DHT22;35483;50.828;3.228;2023-02-15T10:24:07;7.60;99.90
49579;DHT22;35483;50.828;3.228;2023-02-15T10:26:44;7.70;99.90
49579;DHT22;35483;50.828;3.228;2023-02-15T10:29:36;7.70;99.90
49579;DHT22;35483;50.828;3.228;2023-02-15T10:32:23;7.80;99.90
49579;DHT22;35483;50.828;3.228;2023-02-15T10:35:15;7.80;99.90
49579;DHT22;35483;50.828;3.228;2023-02-15T10:38:14;7.80;99.90
49579;DHT22;35483;50.828;3.228;2023-02-15T10:44:05;7.90;99.90
49579;DHT22;35483;50.828;3.228;2023-02-15T11:06:50;8.20;99.90
49579;DHT22;35483;50.828;3.228;2023-02-15T11:09:19;8.30;99.90
49579;DHT22;35483;50.828;3.228;2023-02-15T11:11:52;8.50;99.90
49579;DHT22;35483;50.828;3.228;2023-02-15T11:17:10;8.70;99.90
49579;DHT22;35483;50.828;3.228;2023-02-15T11:22:54;8.90;99.90
49579;DHT22;35483;50.828;3.228;2023-02-15T11:25:30;9.00;99.90
49579;DHT22;35483;50.828;3.228;2023-02-15T11:27:58;9.10;99.90
49579;DHT22;35483;50.828;3.228;2023-02-15T11:30:33;9.10;99.90
49579;DHT22;35483;50.828;3.228;2023-02-15T11:33:02;9.20;99.90
49579;DHT22;35483;50.828;3.228;2023-02-15T11:35:38;9.20;99.90
49579;DHT22;35483;50.828;3.228;2023-02-15T11:38:17;9.20;99.90
49579;DHT22;35483;50.828;3.228;2023-02-15T11:40:54;9.30;99.90
49579;DHT22;35483;50.828;3.228;2023-02-15T11:43:44;9.30;99.90
49579;DHT22;35483;50.828;3.228;2023-02-15T11:46:14;9.40;99.90
49579;DHT22;35483;50.828;3.228;2023-02-15T11:48:41;9.50;99.90
49579;DHT22;35483;50.828;3.228;2023-02-15T11:51:14;9.60;99.90
49579;DHT22;35483;50.828;3.228;2023-02-15T11:53:42;9.70;99.90
49579;DHT22;35483;50.828;3.228;2023-02-15T11:56:15;9.80;99.90
49579;DHT22;35483;50.828;3.228;2023-02-15T11:59:02;10.00;99.90
49579;DHT22;35483;50.828;3.228;2023-02-15T12:01:36;10.00;99.90
49579;DHT22;35483;50.828;3.228;2023-02-15T12:04:20;10.10;99.90
49579;DHT22;35483;50.828;3.228;2023-02-15T12:07:13;10.20;99.90
49579;DHT22;35483;50.828;3.228;2023-02-15T12:10:04;10.30;99.90
49579;DHT22;35483;50.828;3.228;2023-02-15T12:12:34;10.30;99.90
49579;DHT22;35483;50.828;3.228;2023-02-15T12:15:03;10.30;99.90
49579;DHT22;35483;50.828;3.228;2023-02-15T12:17:37;10.40;99.90
49579;DHT22;35483;50.828;3.228;2023-02-15T12:20:33;10.40;99.90
49579;DHT22;35483;50.828;3.228;2023-02-15T12:23:04;10.40;98.90
49579;DHT22;35483;50.828;3.228;2023-02-15T12:25:51;10.40;99.90
49579;DHT22;35483;50.828;3.228;2023-02-15T12:28:42;10.40;99.90
49579;DHT22;35483;50.828;3.228;2023-02-15T12:31:36;10.40;99.80
49579;DHT22;35483;50.828;3.228;2023-02-15T12:34:50;10.40;99.90
49579;DHT22;35483;50.828;3.228;2023-02-15T12:37:00;10.40;99.90
49579;DHT22;35483;50.828;3.228;2023-02-15T12:39:31;10.50;99.90
49579;DHT22;35483;50.828;3.228;2023-02-15T12:42:02;10.50;99.90
49579;DHT22;35483;50.828;3.228;2023-02-15T12:44:32;10.50;99.90
49579;DHT22;35483;50.828;3.228;2023-02-15T12:49:36;10.50;99.90
49579;DHT22;35483;50.828;3.228;2023-02-15T12:52:10;10.50;99.90
49579;DHT22;35483;50.828;3.228;2023-02-15T12:54:51;10.50;99.90
49579;DHT22;35483;50.828;3.228;2023-02-15T12:57:30;10.40;99.90
49579;DHT22;35483;50.828;3.228;2023-02-15T12:59:58;10.50;99.90
49579;DHT22;35483;50.828;3.228;2023-02-15T13:02:48;10.50;99.90
49579;DHT22;35483;50.828;3.228;2023-02-15T13:08:27;10.50;99.90
49579;DHT22;35483;50.828;3.228;2023-02-15T13:13:27;10.50;99.90
49579;DHT22;35483;50.828;3.228;2023-02-15T13:16:07;10.60;99.90
49579;DHT22;35483;50.828;3.228;2023-02-15T13:18:38;10.60;99.80
49579;DHT22;35483;50.828;3.228;2023-02-15T13:21:21;10.60;99.90
49579;DHT22;35483;50.828;3.228;2023-02-15T13:23:53;10.70;99.80
49579;DHT22;35483;50.828;3.228;2023-02-15T13:26:28;10.70;99.90
49579;DHT22;35483;50.828;3.228;2023-02-15T13:28:57;10.80;99.90
49579;DHT22;35483;50.828;3.228;2023-02-15T13:31:27;10.80;99.90
49579;DHT22;35483;50.828;3.228;2023-02-15T13:34:03;10.80;99.90
49579;DHT22;35483;50.828;3.228;2023-02-15T13:39:22;11.00;98.70
49579;DHT22;35483;50.828;3.228;2023-02-15T13:48:07;11.10;99.90
49579;DHT22;35483;50.828;3.228;2023-02-15T13:51:00;11.20;98.90
49579;DHT22;35483;50.828;3.228;2023-02-15T13:53:42;11.20;99.70
49579;DHT22;35483;50.828;3.228;2023-02-15T14:01:58;11.30;98.60
49579;DHT22;35483;50.828;3.228;2023-02-15T14:12:37;11.50;98.50
49579;DHT22;35483;50.828;3.228;2023-02-15T14:15:32;11.50;99.50
49579;DHT22;35483;50.828;3.228;2023-02-15T14:21:28;11.60;98.70
49579;DHT22;35483;50.828;3.228;2023-02-15T14:24:38;11.70;94.40
49579;DHT22;35483;50.828;3.228;2023-02-15T14:27:32;11.70;95.90
49579;DHT22;35483;50.828;3.228;2023-02-15T14:30:46;11.80;97.90
49579;DHT22;35483;50.828;3.228;2023-02-15T14:35:47;11.80;98.10
49579;DHT22;35483;50.828;3.228;2023-02-15T14:44:09;11.70;98.50
49579;DHT22;35483;50.828;3.228;2023-02-15T14:49:22;11.70;97.40
49579;DHT22;35483;50.828;3.228;2023-02-15T14:59:45;11.80;96.10
49579;DHT22;35483;50.828;3.228;2023-02-15T15:05:32;11.70;97.40
49579;DHT22;35483;50.828;3.228;2023-02-15T15:07:57;11.70;98.80
49579;DHT22;35483;50.828;3.228;2023-02-15T15:10:40;11.80;98.80
49579;DHT22;35483;50.828;3.228;2023-02-15T15:18:51;11.80;96.30
49579;DHT22;35483;50.828;3.228;2023-02-15T15:35:20;11.70;99.70
49579;DHT22;35483;50.828;3.228;2023-02-15T15:43:54;11.60;99.20
49579;DHT22;35483;50.828;3.228;2023-02-15T15:49:32;11.50;99.20
49579;DHT22;35483;50.828;3.228;2023-02-15T15:52:07;11.40;99.90
49579;DHT22;35483;50.828;3.228;2023-02-15T15:54:38;11.40;99.90
49579;DHT22;35483;50.828;3.228;2023-02-15T15:57:05;11.40;99.80
49579;DHT22;35483;50.828;3.228;2023-02-15T15:59:44;11.40;99.90
49579;DHT22;35483;50.828;3.228;2023-02-15T16:02:14;11.40;99.20
49579;DHT22;35483;50.828;3.228;2023-02-15T16:04:45;11.40;99.60
49579;DHT22;35483;50.828;3.228;2023-02-15T16:10:06;11.50;99.50
49579;DHT22;35483;50.828;3.228;2023-02-15T16:12:36;11.50;99.40
49579;DHT22;35483;50.828;3.228;2023-02-15T16:17:48;11.40;98.80
49579;DHT22;35483;50.828;3.228;2023-02-15T16:20:15;11.40;99.90
49579;DHT22;35483;50.828;3.228;2023-02-15T16:22:45;11.40;99.90
49579;DHT22;35483;50.828;3.228;2023-02-15T16:28:11;11.30;99.80
49579;DHT22;35483;50.828;3.228;2023-02-15T16:30:38;11.20;99.90
49579;DHT22;35483;50.828;3.228;2023-02-15T16:33:07;11.20;99.90
49579;DHT22;35483;50.828;3.228;2023-02-15T16:35:35;11.10;99.90
49579;DHT22;35483;50.828;3.228;2023-02-15T16:38:02;11.10;99.90
49579;DHT22;35483;50.828;3.228;2023-02-15T16:40:39;11.00;99.90
49579;DHT22;35483;50.828;3.228;2023-02-15T16:43:15;10.90;99.90
49579;DHT22;35483;50.828;3.228;2023-02-15T16:45:42;10.80;99.90
49579;DHT22;35483;50.828;3.228;2023-02-15T16:48:17;10.70;99.90
49579;DHT22;35483;50.828;3.228;2023-02-15T16:50:49;10.70;99.90
49579;DHT22;35483;50.828;3.228;2023-02-15T16:53:20;10.60;99.90
49579;DHT22;35483;50.828;3.228;2023-02-15T16:55:53;10.50;99.90
49579;DHT22;35483;50.828;3.228;2023-02-15T16:58:30;10.50;99.90
49579;DHT22;35483;50.828;3.228;2023-02-15T17:01:01;10.40;99.90
49579;DHT22;35483;50.828;3.228;2023-02-15T17:03:29;10.30;99.90
49579;DHT22;35483;50.828;3.228;2023-02-15T17:05:58;10.20;99.90
49579;DHT22;35483;50.828;3.228;2023-02-15T17:13:31;10.10;99.90
49579;DHT22;35483;50.828;3.228;2023-02-15T17:18:28;10.00;99.90
49579;DHT22;35483;50.828;3.228;2023-02-15T17:21:00;9.90;99.90
49579;DHT22;35483;50.828;3.228;2023-02-15T17:23:42;9.90;99.90
49579;DHT22;35483;50.828;3.228;2023-02-15T17:26:35;9.80;99.90
49579;DHT22;35483;50.828;3.228;2023-02-15T17:29:28;9.70;99.90
49579;DHT22;35483;50.828;3.228;2023-02-15T17:31:56;9.70;99.90
49579;DHT22;35483;50.828;3.228;2023-02-15T17:40:27;9.50;99.90
49579;DHT22;35483;50.828;3.228;2023-02-15T17:42:54;9.50;99.90
49579;DHT22;35483;50.828;3.228;2023-02-15T17:45:22;9.40;99.90
49579;DHT22;35483;50.828;3.228;2023-02-15T17:47:50;9.40;99.90
49579;DHT22;35483;50.828;3.228;2023-02-15T17:50:22;9.40;99.90
49579;DHT22;35483;50.828;3.228;2023-02-15T17:52:50;9.30;99.90
49579;DHT22;35483;50.828;3.228;2023-02-15T17:55:18;9.30;99.90
49579;DHT22;35483;50.828;3.228;2023-02-15T17:58:02;9.20;99.90
49579;DHT22;35483;50.828;3.228;2023-02-15T18:00:29;9.20;99.90
49579;DHT22;35483;50.828;3.228;2023-02-15T18:03:14;9.10;99.90
49579;DHT22;35483;50.828;3.228;2023-02-15T18:05:58;9.10;99.90
49579;DHT22;35483;50.828;3.228;2023-02-15T18:08:43;9.00;99.90
49579;DHT22;35483;50.828;3.228;2023-02-15T18:11:27;9.00;99.90
49579;DHT22;35483;50.828;3.228;2023-02-15T18:14:00;8.90;99.90
49579;DHT22;35483;50.828;3.228;2023-02-15T18:16:29;8.90;99.90
49579;DHT22;35483;50.828;3.228;2023-02-15T18:18:56;8.80;99.90
49579;DHT22;35483;50.828;3.228;2023-02-15T18:21:23;8.80;99.90
49579;DHT22;35483;50.828;3.228;2023-02-15T18:23:48;8.70;99.90
49579;DHT22;35483;50.828;3.228;2023-02-15T18:26:23;8.70;99.90
49579;DHT22;35483;50.828;3.228;2023-02-15T18:28:49;8.70;99.90
49579;DHT22;35483;50.828;3.228;2023-02-15T18:31:15;8.60;99.90
49579;DHT22;35483;50.828;3.228;2023-02-15T18:33:47;8.60;99.90
49579;DHT22;35483;50.828;3.228;2023-02-15T18:36:20;8.60;99.90
49579;DHT22;35483;50.828;3.228;2023-02-15T18:38:46;8.50;99.90
49579;DHT22;35483;50.828;3.228;2023-02-15T18:41:18;8.50;99.90
49579;DHT22;35483;50.828;3.228;2023-02-15T18:43:44;8.50;99.90
49579;DHT22;35483;50.828;3.228;2023-02-15T18:46:10;8.40;99.90
49579;DHT22;35483;50.828;3.228;2023-02-15T18:48:36;8.40;99.90
49579;DHT22;35483;50.828;3.228;2023-02-15T18:51:02;8.30;99.90
49579;DHT22;35483;50.828;3.228;2023-02-15T18:53:28;8.30;99.90
49579;DHT22;35483;50.828;3.228;2023-02-15T18:55:54;8.30;99.90
49579;DHT22;35483;50.828;3.228;2023-02-15T18:58:21;8.20;99.90
49579;DHT22;35483;50.828;3.228;2023-02-15T19:00:49;8.30;99.90
49579;DHT22;35483;50.828;3.228;2023-02-15T19:03:16;8.20;99.90
49579;DHT22;35483;50.828;3.228;2023-02-15T19:05:44;8.30;99.90
49579;DHT22;35483;50.828;3.228;2023-02-15T19:08:18;8.20;99.90
49579;DHT22;35483;50.828;3.228;2023-02-15T19:10:50;8.20;99.90
49579;DHT22;35483;50.828;3.228;2023-02-15T19:13:16;8.10;99.90
49579;DHT22;35483;50.828;3.228;2023-02-15T19:15:43;8.10;99.90
49579;DHT22;35483;50.828;3.228;2023-02-15T19:18:09;8.10;99.90
49579;DHT22;35483;50.828;3.228;2023-02-15T19:20:41;8.00;99.90